Mcallister Responder — WDC8665 — position and weather

sailwx.info

Track history (hours):
 
Tides and Currents Weather Stations Pressure Air Temp Water Temp Dewpoint Dewpoint Depression Visibility Wind Speed Wind Dir Waves Ship Positions

Mcallister Responder

Owner: McAllister Towing & Transportation, Staten Island, NY. More information available from US FCC via Universal Licensing System and Coast Guard Vessel Documentation Center.

Last reported at 2017-Sep-21 00:45 UTC. Time now 2017-Sep-22 19:05 UTC.
Position N 39°54' W 075°12'.

Length 34 m.

Type: Tug. MMSI: 367091050.

Date/timePositionNaut miles runAvg speedWind from/ knotsBaromVisibWave heightAir tempDewpointWater temp
2017-Sep-21 00:45N 39°54' W 075°12'1 4.2
2017-Sep-21 00:30N 39°53' W 075°11'3 6.3
2017-Sep-21 00:00N 39°55' W 075°08'2 4.9
2017-Sep-20 23:30N 39°57' W 075°08'3 5.4
2017-Sep-20 23:01N 39°59' W 075°05'4 7.7
2017-Sep-20 22:30N 40°01' W 075°01'5 9.1
2017-Sep-20 21:57N 40°04' W 074°56'5 9.6
2017-Sep-20 21:29N 40°06' W 074°50'4 8.9
2017-Sep-20 20:59N 40°08' W 074°45'0 0.2
2017-Sep-20 20:30N 40°08' W 074°45'0 0.3
2017-Sep-20 19:42N 40°08' W 074°45'3 7.5
2017-Sep-20 19:18N 40°08' W 074°49'2 8.0
2017-Sep-20 19:00N 40°06' W 074°51'4 7.9
2017-Sep-20 18:30N 40°04' W 074°56'4 8.1
2017-Sep-20 18:00N 40°02' W 075°00'4 8.0
2017-Sep-20 17:30N 39°59' W 075°04'4 8.1
2017-Sep-20 17:00N 39°57' W 075°08'4 7.9
2017-Sep-20 16:30N 39°53' W 075°09'2 4.1
2017-Sep-20 16:00N 39°53' W 075°12'0 1.0
2017-Sep-20 15:30N 39°54' W 075°12'0 0.4
2017-Sep-20 15:00N 39°54' W 075°12'0 0.0
2017-Sep-20 08:58N 39°54' W 075°12'3 6.3
2017-Sep-20 08:30N 39°52' W 075°14'510.5
2017-Sep-20 08:01N 39°51' W 075°21'3 6.6
2017-Sep-20 07:30N 39°49' W 075°24'0 0.1
2017-Sep-20 07:00N 39°49' W 075°24'1 2.8
2017-Sep-20 06:31N 39°50' W 075°23'0 0.0
2017-Sep-20 06:00N 39°50' W 075°23'0 0.0
2017-Sep-20 05:30N 39°50' W 075°23'0 0.0
2017-Sep-20 05:00N 39°50' W 075°23'0 0.0
2017-Sep-20 04:31N 39°50' W 075°23'0 0.0
2017-Sep-20 04:00N 39°50' W 075°23'0 0.0
2017-Sep-20 03:30N 39°50' W 075°23'0 0.0
2017-Sep-20 03:00N 39°50' W 075°23'0 0.0
2017-Sep-20 02:30N 39°50' W 075°23'0 0.0
2017-Sep-20 02:00N 39°50' W 075°23'0 0.0
2017-Sep-20 01:31N 39°50' W 075°23'0 0.0
2017-Sep-20 01:00N 39°50' W 075°23'0 0.0
2017-Sep-20 00:30N 39°50' W 075°23'0 0.0
2017-Sep-20 00:00N 39°50' W 075°23'0 0.0
2017-Sep-19 23:30N 39°50' W 075°23'0 0.0
2017-Sep-19 19:26N 39°50' W 075°23'2 4.8
2017-Sep-19 19:00N 39°48' W 075°25'5 9.3
2017-Sep-19 18:30N 39°45' W 075°29'3 5.3
2017-Sep-19 18:00N 39°42' W 075°30'0 0.2
2017-Sep-19 17:30N 39°42' W 075°31'0 0.2
2017-Sep-19 17:00N 39°42' W 075°30'0 0.1
2017-Sep-19 16:30N 39°42' W 075°30'0 0.0
2017-Sep-19 16:00N 39°42' W 075°30'0 0.1
2017-Sep-19 15:30N 39°42' W 075°30'0 0.0
2017-Sep-19 15:00N 39°42' W 075°30'0 0.0
2017-Sep-19 14:30N 39°42' W 075°30'0 0.0
2017-Sep-19 14:00N 39°42' W 075°30'0 0.0
2017-Sep-19 13:30N 39°42' W 075°30'0 0.1
2017-Sep-19 13:00N 39°42' W 075°30'0 0.1
2017-Sep-19 12:30N 39°42' W 075°30'0 0.5
2017-Sep-19 12:00N 39°42' W 075°31'0 0.2
2017-Sep-19 11:30N 39°42' W 075°30'0 0.0
2017-Sep-19 11:00N 39°42' W 075°30'0 0.0
2017-Sep-19 10:30N 39°42' W 075°30'0 0.0
2017-Sep-19 10:00N 39°42' W 075°30'0 0.0
2017-Sep-19 09:30N 39°42' W 075°30'0 0.0
2017-Sep-19 09:00N 39°42' W 075°30'0 0.0
2017-Sep-19 08:30N 39°42' W 075°30'0 0.0
2017-Sep-19 08:00N 39°42' W 075°30'0 0.1
2017-Sep-19 07:30N 39°42' W 075°30'0 0.1
2017-Sep-19 07:00N 39°42' W 075°30'1 2.3
2017-Sep-19 06:30N 39°41' W 075°31'4 8.3
2017-Sep-19 06:00N 39°38' W 075°34'4 8.3
2017-Sep-19 05:30N 39°34' W 075°33'2 4.0
2017-Sep-19 05:00N 39°35' W 075°35'0 0.5
2017-Sep-19 04:30N 39°35' W 075°35'0 0.1
2017-Sep-19 04:00N 39°35' W 075°35'1 2.5
2017-Sep-19 03:30N 39°35' W 075°34'4 8.7
2017-Sep-19 03:00N 39°40' W 075°32'5 9.5
2017-Sep-19 02:30N 39°44' W 075°30'4 8.0
2017-Sep-19 02:00N 39°47' W 075°27'4 7.7
2017-Sep-19 01:30N 39°50' W 075°23'0 0.2
2017-Sep-19 01:00N 39°50' W 075°23'0 0.0
2017-Sep-19 00:30N 39°50' W 075°23'0 0.0
2017-Sep-19 00:00N 39°50' W 075°23'0 0.0
2017-Sep-18 23:30N 39°50' W 075°23'0 0.0
2017-Sep-18 23:00N 39°50' W 075°23'0 0.0
2017-Sep-18 22:30N 39°50' W 075°23'0 0.0
2017-Sep-18 22:01N 39°50' W 075°23'0 0.0
2017-Sep-18 21:30N 39°50' W 075°23'0 0.0
2017-Sep-18 21:01N 39°50' W 075°23'0 0.0
2017-Sep-18 20:31N 39°50' W 075°23'2 4.5
2017-Sep-18 20:00N 39°48' W 075°25'0 0.0
2017-Sep-18 19:30N 39°48' W 075°25'0 0.3
2017-Sep-18 19:00N 39°48' W 075°25'1 1.3
2017-Sep-18 18:30N 39°48' W 075°24'0 0.8
2017-Sep-18 18:01N 39°49' W 075°24'5 9.6
2017-Sep-18 17:30N 39°51' W 075°19'5 9.9
2017-Sep-18 17:00N 39°52' W 075°13'2 1.5
2017-Sep-18 15:59N 39°54' W 075°12'2 4.7
2017-Sep-18 15:31N 39°52' W 075°13'5 9.4
2017-Sep-18 15:01N 39°51' W 075°19'4 9.0
2017-Sep-18 14:31N 39°49' W 075°24'0 0.0
2017-Sep-18 14:01N 39°49' W 075°24'1 1.6
2017-Sep-18 13:30N 39°48' W 075°25'0 0.1
2017-Sep-18 13:00N 39°48' W 075°25'2 4.4
2017-Sep-18 12:30N 39°50' W 075°23'0 0.0
2017-Sep-18 12:00N 39°50' W 075°23'0 0.0
2017-Sep-18 11:30N 39°50' W 075°23'0 0.0
2017-Sep-18 11:00N 39°50' W 075°23'0 0.0
2017-Sep-18 10:30N 39°50' W 075°23'0 0.0
2017-Sep-18 10:00N 39°50' W 075°23'0 0.0
2017-Sep-18 09:30N 39°50' W 075°23'0 0.0
2017-Sep-18 09:00N 39°50' W 075°23'0 0.0
2017-Sep-18 08:30N 39°50' W 075°23'0 0.0
2017-Sep-18 08:00N 39°50' W 075°23'1 2.3
2017-Sep-18 07:30N 39°49' W 075°24'5 9.0
2017-Sep-18 07:00N 39°46' W 075°29'5 9.3
2017-Sep-18 06:30N 39°42' W 075°31'5 9.2
2017-Sep-18 06:00N 39°38' W 075°34'4 7.6
2017-Sep-18 05:30N 39°34' W 075°34'2 3.3
2017-Sep-18 05:00N 39°35' W 075°35'0 0.0
2017-Sep-18 04:30N 39°35' W 075°35'0 0.1
2017-Sep-18 04:00N 39°35' W 075°35'2 3.5
2017-Sep-18 03:30N 39°34' W 075°33'0 0.2
2017-Sep-18 03:00N 39°34' W 075°33'1 1.2
2017-Sep-18 02:30N 39°35' W 075°33'3 7.0
2017-Sep-18 02:00N 39°38' W 075°35'4 7.3
2017-Sep-18 01:30N 39°41' W 075°31'4 7.6
2017-Sep-18 01:00N 39°44' W 075°30'4 7.4
2017-Sep-18 00:30N 39°47' W 075°27'5 9.1
2017-Sep-18 00:00N 39°50' W 075°22'4 7.6
2017-Sep-17 23:30N 39°51' W 075°18'2 3.9
2017-Sep-17 23:00N 39°51' W 075°15'2 3.6
2017-Sep-17 22:31N 39°52' W 075°13'2 0.2
2017-Sep-17 12:37N 39°54' W 075°12'1 5.2
2017-Sep-17 12:31N 39°53' W 075°12'3 5.5
2017-Sep-17 12:01N 39°54' W 075°08'0 0.9
2017-Sep-17 11:31N 39°54' W 075°08'2 3.9
2017-Sep-17 11:00N 39°53' W 075°10'2 0.2
2017-Sep-17 04:46N 39°54' W 075°12'1 4.5
2017-Sep-17 04:30N 39°53' W 075°11'4 7.6
2017-Sep-17 04:00N 39°56' W 075°08'4 8.2
2017-Sep-17 03:30N 39°59' W 075°04'5 9.4
2017-Sep-17 02:59N 40°02' W 074°59'4 9.2
2017-Sep-17 02:30N 40°04' W 074°54'4 8.5
2017-Sep-17 02:00N 40°07' W 074°50'4 2.6
2017-Sep-17 00:34N 40°08' W 074°45'1 8.1
2017-Sep-17 00:30N 40°08' W 074°46'4 7.9
2017-Sep-17 00:00N 40°06' W 074°50'4 8.7
2017-Sep-16 23:30N 40°04' W 074°56'4 8.4
2017-Sep-16 23:01N 40°02' W 075°00'4 8.4
2017-Sep-16 22:31N 39°59' W 075°04'4 7.8
2017-Sep-16 22:01N 39°57' W 075°08'0 0.0
2017-Sep-16 21:31N 39°57' W 075°08'0 0.0
2017-Sep-16 21:00N 39°57' W 075°08'0 0.0
2017-Sep-16 20:30N 39°57' W 075°08'0 0.0
2017-Sep-16 20:00N 39°57' W 075°08'0 0.0
2017-Sep-16 19:31N 39°57' W 075°08'0 0.0
2017-Sep-16 19:01N 39°57' W 075°08'0 0.0
2017-Sep-16 18:31N 39°57' W 075°08'0 0.0
2017-Sep-16 18:00N 39°57' W 075°08'0 0.0
2017-Sep-16 17:31N 39°57' W 075°08'1 1.5
2017-Sep-16 17:00N 39°56' W 075°08'0 0.3
2017-Sep-16 16:31N 39°56' W 075°08'0 0.3
2017-Sep-16 16:01N 39°56' W 075°08'0 0.2
2017-Sep-16 15:30N 39°56' W 075°08'3 6.9
2017-Sep-16 15:00N 39°53' W 075°10'0 0.2
2017-Sep-16 14:31N 39°53' W 075°10'0 0.0
2017-Sep-16 14:00N 39°53' W 075°10'0 0.0
2017-Sep-16 13:30N 39°53' W 075°10'1 3.0
2017-Sep-16 13:01N 39°54' W 075°08'0 0.0
2017-Sep-16 12:30N 39°54' W 075°08'0 0.0
2017-Sep-16 12:00N 39°54' W 075°08'0 0.0
2017-Sep-16 11:30N 39°54' W 075°08'0 0.4
2017-Sep-16 11:00N 39°54' W 075°08'0 0.3
2017-Sep-16 10:30N 39°54' W 075°08'0 0.0
2017-Sep-16 10:01N 39°54' W 075°08'0 0.0
2017-Sep-16 09:30N 39°54' W 075°08'0 0.0
2017-Sep-16 09:00N 39°54' W 075°08'0 0.0
2017-Sep-16 08:31N 39°54' W 075°08'3 5.5
2017-Sep-16 08:00N 39°57' W 075°08'5 9.8
2017-Sep-16 07:30N 39°60' W 075°04'510.7
2017-Sep-16 07:00N 40°03' W 074°58'710.6
2017-Sep-16 06:20N 40°07' W 074°50'4 4.8
2017-Sep-16 05:33N 40°08' W 074°45'0 1.7
2017-Sep-16 05:30N 40°08' W 074°45'0 0.2
2017-Sep-16 04:53N 40°08' W 074°46'3 8.7
2017-Sep-16 04:29N 40°07' W 074°50'4 8.8
2017-Sep-16 04:00N 40°04' W 074°54'5 9.9
2017-Sep-16 03:30N 40°02' W 074°60'5 9.7
2017-Sep-16 03:00N 39°59' W 075°04'4 8.6
2017-Sep-16 02:30N 39°56' W 075°08'1 1.4
2017-Sep-16 02:00N 39°55' W 075°08'0 0.0
2017-Sep-16 01:31N 39°55' W 075°08'0 0.0
2017-Sep-16 01:00N 39°55' W 075°08'0 0.1
2017-Sep-16 00:31N 39°55' W 075°08'0 0.0
2017-Sep-16 00:00N 39°55' W 075°08'1 2.4
2017-Sep-15 23:30N 39°54' W 075°08'0 0.0
2017-Sep-15 23:01N 39°54' W 075°08'0 0.0
2017-Sep-15 22:31N 39°54' W 075°08'0 0.0
2017-Sep-15 22:00N 39°54' W 075°08'0 0.0
2017-Sep-15 21:30N 39°54' W 075°08'0 0.0
2017-Sep-15 21:00N 39°54' W 075°08'0 0.0
2017-Sep-15 20:30N 39°54' W 075°08'0 0.0
2017-Sep-15 20:01N 39°54' W 075°08'1 2.9
2017-Sep-15 19:31N 39°53' W 075°10'0 0.3
2017-Sep-15 19:00N 39°53' W 075°10'2 3.2
2017-Sep-15 18:30N 39°53' W 075°12'1 0.1
2017-Sep-15 06:05N 39°54' W 075°12'0 0.4
2017-Sep-15 06:00N 39°54' W 075°12'3 6.2
2017-Sep-15 05:30N 39°54' W 075°08'1 1.4
2017-Sep-15 04:58N 39°55' W 075°08'1 1.5
2017-Sep-15 04:27N 39°54' W 075°08'2 4.2
2017-Sep-15 04:00N 39°56' W 075°08'0 0.6
2017-Sep-15 03:30N 39°56' W 075°08'1 1.4
2017-Sep-15 03:00N 39°55' W 075°08'0 0.0
2017-Sep-15 02:30N 39°55' W 075°08'3 5.9
2017-Sep-15 02:00N 39°58' W 075°07'1 2.5
2017-Sep-15 01:31N 39°59' W 075°06'0 0.0
2017-Sep-15 01:00N 39°59' W 075°06'0 0.0
2017-Sep-15 00:30N 39°59' W 075°06'0 0.0
2017-Sep-15 00:00N 39°59' W 075°06'4 7.8
2017-Sep-14 23:30N 39°55' W 075°08'3 6.6
2017-Sep-14 23:00N 39°53' W 075°12'1 2.6
2017-Sep-14 22:31N 39°53' W 075°10'4 7.6
2017-Sep-14 22:00N 39°56' W 075°08'4 7.2
2017-Sep-14 21:30N 39°59' W 075°04'0 0.0
2017-Sep-14 21:00N 39°59' W 075°04'0 0.2
2017-Sep-14 20:30N 39°59' W 075°04'2 4.1
2017-Sep-14 20:01N 39°58' W 075°07'4 8.2
2017-Sep-14 19:31N 39°54' W 075°08'3 6.0
2017-Sep-14 19:01N 39°54' W 075°12'0 0.0
2017-Sep-14 01:56N 39°54' W 075°12'1 2.3
2017-Sep-14 01:30N 39°53' W 075°11'0 0.0
2017-Sep-14 01:00N 39°53' W 075°11'0 0.1
2017-Sep-14 00:30N 39°53' W 075°11'1 1.0
2017-Sep-14 00:01N 39°53' W 075°11'1 1.7
2017-Sep-13 23:30N 39°54' W 075°12'0 0.4
2017-Sep-13 23:00N 39°54' W 075°12'2 3.7
2017-Sep-13 22:30N 39°53' W 075°10'0 0.5
2017-Sep-13 22:00N 39°53' W 075°09'1 2.4
2017-Sep-13 21:30N 39°53' W 075°11'1 0.3
2017-Sep-13 18:11N 39°54' W 075°12'1 4.7
2017-Sep-13 18:01N 39°53' W 075°12'3 6.2
2017-Sep-13 17:30N 39°51' W 075°15'0 0.0
2017-Sep-13 17:01N 39°51' W 075°15'0 0.0
2017-Sep-13 16:30N 39°51' W 075°15'2 4.0
2017-Sep-13 16:00N 39°52' W 075°13'2 0.1
2017-Sep-12 18:45N 39°54' W 075°12'0 1.3
2017-Sep-12 18:30N 39°53' W 075°12'0 0.0
2017-Sep-12 18:00N 39°53' W 075°12'0 0.0
2017-Sep-12 17:30N 39°53' W 075°12'0 0.1
2017-Sep-12 17:00N 39°54' W 075°12'0 0.0
2017-Sep-12 16:30N 39°54' W 075°12'0 0.0
2017-Sep-12 16:00N 39°54' W 075°12'3 5.4
2017-Sep-12 15:30N 39°54' W 075°08'5 9.2
2017-Sep-12 15:00N 39°58' W 075°06'510.4
2017-Sep-12 14:30N 40°01' W 075°01'510.9
2017-Sep-12 14:00N 40°04' W 074°55'8 9.7
2017-Sep-12 13:12N 40°08' W 074°46'0 0.1
2017-Sep-12 08:42N 40°08' W 074°45'0 0.7
2017-Sep-12 08:30N 40°08' W 074°45'0 0.3
2017-Sep-12 08:00N 40°08' W 074°45'0 0.0
2017-Sep-12 07:30N 40°08' W 074°45'0 0.0
2017-Sep-12 06:49N 40°08' W 074°45'0 0.0
2017-Sep-12 06:27N 40°08' W 074°45'0 0.0
2017-Sep-12 05:57N 40°08' W 074°45'0 0.0
2017-Sep-12 05:19N 40°08' W 074°45'0 0.0
2017-Sep-12 04:56N 40°08' W 074°45'0 0.2
2017-Sep-12 04:30N 40°08' W 074°45'4 7.8
2017-Sep-12 03:59N 40°07' W 074°50'4 8.6
2017-Sep-12 03:30N 40°04' W 074°55'4 9.0
2017-Sep-12 03:00N 40°02' W 074°60'4 8.4
2017-Sep-12 02:30N 39°59' W 075°04'4 7.1
2017-Sep-12 02:00N 40°02' W 075°00'510.3
2017-Sep-12 01:30N 40°04' W 074°55'4 8.0
2017-Sep-12 01:00N 40°06' W 074°50'4 5.6
2017-Sep-12 00:16N 40°08' W 074°45'0 0.9
2017-Sep-12 00:00N 40°08' W 074°46'5 9.2
2017-Sep-11 23:30N 40°06' W 074°51'510.9
2017-Sep-11 23:00N 40°04' W 074°57'612.3
2017-Sep-11 22:30N 39°60' W 075°04'510.6
2017-Sep-11 22:00N 39°56' W 075°08'2 3.5
2017-Sep-11 21:30N 39°54' W 075°08'0 0.4
2017-Sep-11 21:00N 39°54' W 075°08'0 0.0
2017-Sep-11 20:30N 39°54' W 075°08'2 4.7
2017-Sep-11 20:00N 39°57' W 075°08'4 7.7
2017-Sep-11 19:30N 39°59' W 075°04'4 7.6
2017-Sep-11 19:00N 40°01' W 075°00'4 8.7
2017-Sep-11 18:30N 40°04' W 074°56'9 1.2
2017-Sep-11 10:32N 40°08' W 074°45'0 0.0
2017-Sep-11 10:27N 40°08' W 074°45'0 0.0
2017-Sep-11 10:00N 40°08' W 074°45'0 0.0
2017-Sep-11 09:19N 40°08' W 074°45'0 0.3
2017-Sep-11 09:00N 40°08' W 074°45'0 0.2
2017-Sep-11 08:30N 40°08' W 074°45'2 3.9
2017-Sep-11 08:00N 40°07' W 074°47'3 5.7
2017-Sep-11 07:30N 40°06' W 074°51'4 8.4
2017-Sep-11 07:00N 40°04' W 074°56'510.9
2017-Sep-11 06:30N 40°01' W 075°01'4 7.8
2017-Sep-11 06:01N 39°59' W 075°05'3 5.6
2017-Sep-11 05:30N 39°57' W 075°08'3 6.3
2017-Sep-11 05:01N 39°54' W 075°08'4 8.2
2017-Sep-11 04:31N 39°52' W 075°13'1 1.9
2017-Sep-11 04:00N 39°51' W 075°14'0 0.0
2017-Sep-11 03:30N 39°51' W 075°14'0 0.0
2017-Sep-11 03:00N 39°51' W 075°14'0 0.6
2017-Sep-11 02:30N 39°51' W 075°14'3 5.1
2017-Sep-11 02:00N 39°54' W 075°12'0 0.0
2017-Sep-11 01:31N 39°54' W 075°12'0 0.0
2017-Sep-11 01:00N 39°54' W 075°12'  
Track history (hours):
 
Tides and Currents Weather Stations Pressure Air Temp Water Temp Dewpoint Dewpoint Depression Visibility Wind Speed Wind Dir Waves Ship Positions

Mcallister Responder

Owner: McAllister Towing & Transportation, Staten Island, NY. More information available from US FCC via Universal Licensing System and Coast Guard Vessel Documentation Center.

Last reported at 2017-Sep-21 00:45 UTC. Time now 2017-Sep-22 19:05 UTC.
Position N 39°54' W 075°12'.

Length 34 m.

Type: Tug. MMSI: 367091050.

Date/timePositionNaut miles runAvg speedWind from/ knotsBaromVisibWave heightAir tempDewpointWater temp
2017-Sep-21 00:45N 39°54' W 075°12'1 4.2
2017-Sep-21 00:30N 39°53' W 075°11'3 6.3
2017-Sep-21 00:00N 39°55' W 075°08'2 4.9
2017-Sep-20 23:30N 39°57' W 075°08'3 5.4
2017-Sep-20 23:01N 39°59' W 075°05'4 7.7
2017-Sep-20 22:30N 40°01' W 075°01'5 9.1
2017-Sep-20 21:57N 40°04' W 074°56'5 9.6
2017-Sep-20 21:29N 40°06' W 074°50'4 8.9
2017-Sep-20 20:59N 40°08' W 074°45'0 0.2
2017-Sep-20 20:30N 40°08' W 074°45'0 0.3
2017-Sep-20 19:42N 40°08' W 074°45'3 7.5
2017-Sep-20 19:18N 40°08' W 074°49'2 8.0
2017-Sep-20 19:00N 40°06' W 074°51'4 7.9
2017-Sep-20 18:30N 40°04' W 074°56'4 8.1
2017-Sep-20 18:00N 40°02' W 075°00'4 8.0
2017-Sep-20 17:30N 39°59' W 075°04'4 8.1
2017-Sep-20 17:00N 39°57' W 075°08'4 7.9
2017-Sep-20 16:30N 39°53' W 075°09'2 4.1
2017-Sep-20 16:00N 39°53' W 075°12'0 1.0
2017-Sep-20 15:30N 39°54' W 075°12'0 0.4
2017-Sep-20 15:00N 39°54' W 075°12'0 0.0
2017-Sep-20 08:58N 39°54' W 075°12'3 6.3
2017-Sep-20 08:30N 39°52' W 075°14'510.5
2017-Sep-20 08:01N 39°51' W 075°21'3 6.6
2017-Sep-20 07:30N 39°49' W 075°24'0 0.1
2017-Sep-20 07:00N 39°49' W 075°24'1 2.8
2017-Sep-20 06:31N 39°50' W 075°23'0 0.0
2017-Sep-20 06:00N 39°50' W 075°23'0 0.0
2017-Sep-20 05:30N 39°50' W 075°23'0 0.0
2017-Sep-20 05:00N 39°50' W 075°23'0 0.0
2017-Sep-20 04:31N 39°50' W 075°23'0 0.0
2017-Sep-20 04:00N 39°50' W 075°23'0 0.0
2017-Sep-20 03:30N 39°50' W 075°23'0 0.0
2017-Sep-20 03:00N 39°50' W 075°23'0 0.0
2017-Sep-20 02:30N 39°50' W 075°23'0 0.0
2017-Sep-20 02:00N 39°50' W 075°23'0 0.0
2017-Sep-20 01:31N 39°50' W 075°23'0 0.0
2017-Sep-20 01:00N 39°50' W 075°23'0 0.0
2017-Sep-20 00:30N 39°50' W 075°23'0 0.0
2017-Sep-20 00:00N 39°50' W 075°23'0 0.0
2017-Sep-19 23:30N 39°50' W 075°23'0 0.0
2017-Sep-19 19:26N 39°50' W 075°23'2 4.8
2017-Sep-19 19:00N 39°48' W 075°25'5 9.3
2017-Sep-19 18:30N 39°45' W 075°29'3 5.3
2017-Sep-19 18:00N 39°42' W 075°30'0 0.2
2017-Sep-19 17:30N 39°42' W 075°31'0 0.2
2017-Sep-19 17:00N 39°42' W 075°30'0 0.1
2017-Sep-19 16:30N 39°42' W 075°30'0 0.0
2017-Sep-19 16:00N 39°42' W 075°30'0 0.1
2017-Sep-19 15:30N 39°42' W 075°30'0 0.0
2017-Sep-19 15:00N 39°42' W 075°30'0 0.0
2017-Sep-19 14:30N 39°42' W 075°30'0 0.0
2017-Sep-19 14:00N 39°42' W 075°30'0 0.0
2017-Sep-19 13:30N 39°42' W 075°30'0 0.1
2017-Sep-19 13:00N 39°42' W 075°30'0 0.1
2017-Sep-19 12:30N 39°42' W 075°30'0 0.5
2017-Sep-19 12:00N 39°42' W 075°31'0 0.2
2017-Sep-19 11:30N 39°42' W 075°30'0 0.0
2017-Sep-19 11:00N 39°42' W 075°30'0 0.0
2017-Sep-19 10:30N 39°42' W 075°30'0 0.0
2017-Sep-19 10:00N 39°42' W 075°30'0 0.0
2017-Sep-19 09:30N 39°42' W 075°30'0 0.0
2017-Sep-19 09:00N 39°42' W 075°30'0 0.0
2017-Sep-19 08:30N 39°42' W 075°30'0 0.0
2017-Sep-19 08:00N 39°42' W 075°30'0 0.1
2017-Sep-19 07:30N 39°42' W 075°30'0 0.1
2017-Sep-19 07:00N 39°42' W 075°30'1 2.3
2017-Sep-19 06:30N 39°41' W 075°31'4 8.3
2017-Sep-19 06:00N 39°38' W 075°34'4 8.3
2017-Sep-19 05:30N 39°34' W 075°33'2 4.0
2017-Sep-19 05:00N 39°35' W 075°35'0 0.5
2017-Sep-19 04:30N 39°35' W 075°35'0 0.1
2017-Sep-19 04:00N 39°35' W 075°35'1 2.5
2017-Sep-19 03:30N 39°35' W 075°34'4 8.7
2017-Sep-19 03:00N 39°40' W 075°32'5 9.5
2017-Sep-19 02:30N 39°44' W 075°30'4 8.0
2017-Sep-19 02:00N 39°47' W 075°27'4 7.7
2017-Sep-19 01:30N 39°50' W 075°23'0 0.2
2017-Sep-19 01:00N 39°50' W 075°23'0 0.0
2017-Sep-19 00:30N 39°50' W 075°23'0 0.0
2017-Sep-19 00:00N 39°50' W 075°23'0 0.0
2017-Sep-18 23:30N 39°50' W 075°23'0 0.0
2017-Sep-18 23:00N 39°50' W 075°23'0 0.0
2017-Sep-18 22:30N 39°50' W 075°23'0 0.0
2017-Sep-18 22:01N 39°50' W 075°23'0 0.0
2017-Sep-18 21:30N 39°50' W 075°23'0 0.0
2017-Sep-18 21:01N 39°50' W 075°23'0 0.0
2017-Sep-18 20:31N 39°50' W 075°23'2 4.5
2017-Sep-18 20:00N 39°48' W 075°25'0 0.0
2017-Sep-18 19:30N 39°48' W 075°25'0 0.3
2017-Sep-18 19:00N 39°48' W 075°25'1 1.3
2017-Sep-18 18:30N 39°48' W 075°24'0 0.8
2017-Sep-18 18:01N 39°49' W 075°24'5 9.6
2017-Sep-18 17:30N 39°51' W 075°19'5 9.9
2017-Sep-18 17:00N 39°52' W 075°13'2 1.5
2017-Sep-18 15:59N 39°54' W 075°12'2 4.7
2017-Sep-18 15:31N 39°52' W 075°13'5 9.4
2017-Sep-18 15:01N 39°51' W 075°19'4 9.0
2017-Sep-18 14:31N 39°49' W 075°24'0 0.0
2017-Sep-18 14:01N 39°49' W 075°24'1 1.6
2017-Sep-18 13:30N 39°48' W 075°25'0 0.1
2017-Sep-18 13:00N 39°48' W 075°25'2 4.4
2017-Sep-18 12:30N 39°50' W 075°23'0 0.0
2017-Sep-18 12:00N 39°50' W 075°23'0 0.0
2017-Sep-18 11:30N 39°50' W 075°23'0 0.0
2017-Sep-18 11:00N 39°50' W 075°23'0 0.0
2017-Sep-18 10:30N 39°50' W 075°23'0 0.0
2017-Sep-18 10:00N 39°50' W 075°23'0 0.0
2017-Sep-18 09:30N 39°50' W 075°23'0 0.0
2017-Sep-18 09:00N 39°50' W 075°23'0 0.0
2017-Sep-18 08:30N 39°50' W 075°23'0 0.0
2017-Sep-18 08:00N 39°50' W 075°23'1 2.3
2017-Sep-18 07:30N 39°49' W 075°24'5 9.0
2017-Sep-18 07:00N 39°46' W 075°29'5 9.3
2017-Sep-18 06:30N 39°42' W 075°31'5 9.2
2017-Sep-18 06:00N 39°38' W 075°34'4 7.6
2017-Sep-18 05:30N 39°34' W 075°34'2 3.3
2017-Sep-18 05:00N 39°35' W 075°35'0 0.0
2017-Sep-18 04:30N 39°35' W 075°35'0 0.1
2017-Sep-18 04:00N 39°35' W 075°35'2 3.5
2017-Sep-18 03:30N 39°34' W 075°33'0 0.2
2017-Sep-18 03:00N 39°34' W 075°33'1 1.2
2017-Sep-18 02:30N 39°35' W 075°33'3 7.0
2017-Sep-18 02:00N 39°38' W 075°35'4 7.3
2017-Sep-18 01:30N 39°41' W 075°31'4 7.6
2017-Sep-18 01:00N 39°44' W 075°30'4 7.4
2017-Sep-18 00:30N 39°47' W 075°27'5 9.1
2017-Sep-18 00:00N 39°50' W 075°22'4 7.6
2017-Sep-17 23:30N 39°51' W 075°18'2 3.9
2017-Sep-17 23:00N 39°51' W 075°15'2 3.6
2017-Sep-17 22:31N 39°52' W 075°13'2 0.2
2017-Sep-17 12:37N 39°54' W 075°12'1 5.2
2017-Sep-17 12:31N 39°53' W 075°12'3 5.5
2017-Sep-17 12:01N 39°54' W 075°08'0 0.9
2017-Sep-17 11:31N 39°54' W 075°08'2 3.9
2017-Sep-17 11:00N 39°53' W 075°10'2 0.2
2017-Sep-17 04:46N 39°54' W 075°12'1 4.5
2017-Sep-17 04:30N 39°53' W 075°11'4 7.6
2017-Sep-17 04:00N 39°56' W 075°08'4 8.2
2017-Sep-17 03:30N 39°59' W 075°04'5 9.4
2017-Sep-17 02:59N 40°02' W 074°59'4 9.2
2017-Sep-17 02:30N 40°04' W 074°54'4 8.5
2017-Sep-17 02:00N 40°07' W 074°50'4 2.6
2017-Sep-17 00:34N 40°08' W 074°45'1 8.1
2017-Sep-17 00:30N 40°08' W 074°46'4 7.9
2017-Sep-17 00:00N 40°06' W 074°50'4 8.7
2017-Sep-16 23:30N 40°04' W 074°56'4 8.4
2017-Sep-16 23:01N 40°02' W 075°00'4 8.4
2017-Sep-16 22:31N 39°59' W 075°04'4 7.8
2017-Sep-16 22:01N 39°57' W 075°08'0 0.0
2017-Sep-16 21:31N 39°57' W 075°08'0 0.0
2017-Sep-16 21:00N 39°57' W 075°08'0 0.0
2017-Sep-16 20:30N 39°57' W 075°08'0 0.0
2017-Sep-16 20:00N 39°57' W 075°08'0 0.0
2017-Sep-16 19:31N 39°57' W 075°08'0 0.0
2017-Sep-16 19:01N 39°57' W 075°08'0 0.0
2017-Sep-16 18:31N 39°57' W 075°08'0 0.0
2017-Sep-16 18:00N 39°57' W 075°08'0 0.0
2017-Sep-16 17:31N 39°57' W 075°08'1 1.5
2017-Sep-16 17:00N 39°56' W 075°08'0 0.3
2017-Sep-16 16:31N 39°56' W 075°08'0 0.3
2017-Sep-16 16:01N 39°56' W 075°08'0 0.2
2017-Sep-16 15:30N 39°56' W 075°08'3 6.9
2017-Sep-16 15:00N 39°53' W 075°10'0 0.2
2017-Sep-16 14:31N 39°53' W 075°10'0 0.0
2017-Sep-16 14:00N 39°53' W 075°10'0 0.0
2017-Sep-16 13:30N 39°53' W 075°10'1 3.0
2017-Sep-16 13:01N 39°54' W 075°08'0 0.0
2017-Sep-16 12:30N 39°54' W 075°08'0 0.0
2017-Sep-16 12:00N 39°54' W 075°08'0 0.0
2017-Sep-16 11:30N 39°54' W 075°08'0 0.4
2017-Sep-16 11:00N 39°54' W 075°08'0 0.3
2017-Sep-16 10:30N 39°54' W 075°08'0 0.0
2017-Sep-16 10:01N 39°54' W 075°08'0 0.0
2017-Sep-16 09:30N 39°54' W 075°08'0 0.0
2017-Sep-16 09:00N 39°54' W 075°08'0 0.0
2017-Sep-16 08:31N 39°54' W 075°08'3 5.5
2017-Sep-16 08:00N 39°57' W 075°08'5 9.8
2017-Sep-16 07:30N 39°60' W 075°04'510.7
2017-Sep-16 07:00N 40°03' W 074°58'710.6
2017-Sep-16 06:20N 40°07' W 074°50'4 4.8
2017-Sep-16 05:33N 40°08' W 074°45'0 1.7
2017-Sep-16 05:30N 40°08' W 074°45'0 0.2
2017-Sep-16 04:53N 40°08' W 074°46'3 8.7
2017-Sep-16 04:29N 40°07' W 074°50'4 8.8
2017-Sep-16 04:00N 40°04' W 074°54'5 9.9
2017-Sep-16 03:30N 40°02' W 074°60'5 9.7
2017-Sep-16 03:00N 39°59' W 075°04'4 8.6
2017-Sep-16 02:30N 39°56' W 075°08'1 1.4
2017-Sep-16 02:00N 39°55' W 075°08'0 0.0
2017-Sep-16 01:31N 39°55' W 075°08'0 0.0
2017-Sep-16 01:00N 39°55' W 075°08'0 0.1
2017-Sep-16 00:31N 39°55' W 075°08'0 0.0
2017-Sep-16 00:00N 39°55' W 075°08'1 2.4
2017-Sep-15 23:30N 39°54' W 075°08'0 0.0
2017-Sep-15 23:01N 39°54' W 075°08'0 0.0
2017-Sep-15 22:31N 39°54' W 075°08'0 0.0
2017-Sep-15 22:00N 39°54' W 075°08'0 0.0
2017-Sep-15 21:30N 39°54' W 075°08'0 0.0
2017-Sep-15 21:00N 39°54' W 075°08'0 0.0
2017-Sep-15 20:30N 39°54' W 075°08'0 0.0
2017-Sep-15 20:01N 39°54' W 075°08'1 2.9
2017-Sep-15 19:31N 39°53' W 075°10'0 0.3
2017-Sep-15 19:00N 39°53' W 075°10'2 3.2
2017-Sep-15 18:30N 39°53' W 075°12'1 0.1
2017-Sep-15 06:05N 39°54' W 075°12'0 0.4
2017-Sep-15 06:00N 39°54' W 075°12'3 6.2
2017-Sep-15 05:30N 39°54' W 075°08'1 1.4
2017-Sep-15 04:58N 39°55' W 075°08'1 1.5
2017-Sep-15 04:27N 39°54' W 075°08'2 4.2
2017-Sep-15 04:00N 39°56' W 075°08'0 0.6
2017-Sep-15 03:30N 39°56' W 075°08'1 1.4
2017-Sep-15 03:00N 39°55' W 075°08'0 0.0
2017-Sep-15 02:30N 39°55' W 075°08'3 5.9
2017-Sep-15 02:00N 39°58' W 075°07'1 2.5
2017-Sep-15 01:31N 39°59' W 075°06'0 0.0
2017-Sep-15 01:00N 39°59' W 075°06'0 0.0
2017-Sep-15 00:30N 39°59' W 075°06'0 0.0
2017-Sep-15 00:00N 39°59' W 075°06'4 7.8
2017-Sep-14 23:30N 39°55' W 075°08'3 6.6
2017-Sep-14 23:00N 39°53' W 075°12'1 2.6
2017-Sep-14 22:31N 39°53' W 075°10'4 7.6
2017-Sep-14 22:00N 39°56' W 075°08'4 7.2
2017-Sep-14 21:30N 39°59' W 075°04'0 0.0
2017-Sep-14 21:00N 39°59' W 075°04'0 0.2
2017-Sep-14 20:30N 39°59' W 075°04'2 4.1
2017-Sep-14 20:01N 39°58' W 075°07'4 8.2
2017-Sep-14 19:31N 39°54' W 075°08'3 6.0
2017-Sep-14 19:01N 39°54' W 075°12'0 0.0
2017-Sep-14 01:56N 39°54' W 075°12'1 2.3
2017-Sep-14 01:30N 39°53' W 075°11'0 0.0
2017-Sep-14 01:00N 39°53' W 075°11'0 0.1
2017-Sep-14 00:30N 39°53' W 075°11'1 1.0
2017-Sep-14 00:01N 39°53' W 075°11'1 1.7
2017-Sep-13 23:30N 39°54' W 075°12'0 0.4
2017-Sep-13 23:00N 39°54' W 075°12'2 3.7
2017-Sep-13 22:30N 39°53' W 075°10'0 0.5
2017-Sep-13 22:00N 39°53' W 075°09'1 2.4
2017-Sep-13 21:30N 39°53' W 075°11'1 0.3
2017-Sep-13 18:11N 39°54' W 075°12'1 4.7
2017-Sep-13 18:01N 39°53' W 075°12'3 6.2
2017-Sep-13 17:30N 39°51' W 075°15'0 0.0
2017-Sep-13 17:01N 39°51' W 075°15'0 0.0
2017-Sep-13 16:30N 39°51' W 075°15'2 4.0
2017-Sep-13 16:00N 39°52' W 075°13'2 0.1
2017-Sep-12 18:45N 39°54' W 075°12'0 1.3
2017-Sep-12 18:30N 39°53' W 075°12'0 0.0
2017-Sep-12 18:00N 39°53' W 075°12'0 0.0
2017-Sep-12 17:30N 39°53' W 075°12'0 0.1
2017-Sep-12 17:00N 39°54' W 075°12'0 0.0
2017-Sep-12 16:30N 39°54' W 075°12'0 0.0
2017-Sep-12 16:00N 39°54' W 075°12'3 5.4
2017-Sep-12 15:30N 39°54' W 075°08'5 9.2
2017-Sep-12 15:00N 39°58' W 075°06'510.4
2017-Sep-12 14:30N 40°01' W 075°01'510.9
2017-Sep-12 14:00N 40°04' W 074°55'8 9.7
2017-Sep-12 13:12N 40°08' W 074°46'0 0.1
2017-Sep-12 08:42N 40°08' W 074°45'0 0.7
2017-Sep-12 08:30N 40°08' W 074°45'0 0.3
2017-Sep-12 08:00N 40°08' W 074°45'0 0.0
2017-Sep-12 07:30N 40°08' W 074°45'0 0.0
2017-Sep-12 06:49N 40°08' W 074°45'0 0.0
2017-Sep-12 06:27N 40°08' W 074°45'0 0.0
2017-Sep-12 05:57N 40°08' W 074°45'0 0.0
2017-Sep-12 05:19N 40°08' W 074°45'0 0.0
2017-Sep-12 04:56N 40°08' W 074°45'0 0.2
2017-Sep-12 04:30N 40°08' W 074°45'4 7.8
2017-Sep-12 03:59N 40°07' W 074°50'4 8.6
2017-Sep-12 03:30N 40°04' W 074°55'4 9.0
2017-Sep-12 03:00N 40°02' W 074°60'4 8.4
2017-Sep-12 02:30N 39°59' W 075°04'4 7.1
2017-Sep-12 02:00N 40°02' W 075°00'510.3
2017-Sep-12 01:30N 40°04' W 074°55'4 8.0
2017-Sep-12 01:00N 40°06' W 074°50'4 5.6
2017-Sep-12 00:16N 40°08' W 074°45'0 0.9
2017-Sep-12 00:00N 40°08' W 074°46'5 9.2
2017-Sep-11 23:30N 40°06' W 074°51'510.9
2017-Sep-11 23:00N 40°04' W 074°57'612.3
2017-Sep-11 22:30N 39°60' W 075°04'510.6
2017-Sep-11 22:00N 39°56' W 075°08'2 3.5
2017-Sep-11 21:30N 39°54' W 075°08'0 0.4
2017-Sep-11 21:00N 39°54' W 075°08'0 0.0
2017-Sep-11 20:30N 39°54' W 075°08'2 4.7
2017-Sep-11 20:00N 39°57' W 075°08'4 7.7
2017-Sep-11 19:30N 39°59' W 075°04'4 7.6
2017-Sep-11 19:00N 40°01' W 075°00'4 8.7
2017-Sep-11 18:30N 40°04' W 074°56'9 1.2
2017-Sep-11 10:32N 40°08' W 074°45'0 0.0
2017-Sep-11 10:27N 40°08' W 074°45'0 0.0
2017-Sep-11 10:00N 40°08' W 074°45'0 0.0
2017-Sep-11 09:19N 40°08' W 074°45'0 0.3
2017-Sep-11 09:00N 40°08' W 074°45'0 0.2
2017-Sep-11 08:30N 40°08' W 074°45'2 3.9
2017-Sep-11 08:00N 40°07' W 074°47'3 5.7
2017-Sep-11 07:30N 40°06' W 074°51'4 8.4
2017-Sep-11 07:00N 40°04' W 074°56'510.9
2017-Sep-11 06:30N 40°01' W 075°01'4 7.8
2017-Sep-11 06:01N 39°59' W 075°05'3 5.6
2017-Sep-11 05:30N 39°57' W 075°08'3 6.3
2017-Sep-11 05:01N 39°54' W 075°08'4 8.2
2017-Sep-11 04:31N 39°52' W 075°13'1 1.9
2017-Sep-11 04:00N 39°51' W 075°14'0 0.0
2017-Sep-11 03:30N 39°51' W 075°14'0 0.0
2017-Sep-11 03:00N 39°51' W 075°14'0 0.6
2017-Sep-11 02:30N 39°51' W 075°14'3 5.1
2017-Sep-11 02:00N 39°54' W 075°12'0 0.0
2017-Sep-11 01:31N 39°54' W 075°12'0 0.0
2017-Sep-11 01:00N 39°54' W 075°12'  

Dump ship's entire track history